Time;durP1;ratioP1;P1;durP2;ratioP2;P2;SDS_P1;SDS_P2;PMS_P1;PMS_P2;Temp;Humidity;BMP_temperature;BMP_pressure;BME280_temperature;BME280_humidity;BME280_pressure;Samples;Min_cycle;Max_cycle;Signal;HPM_P1;HPM_P2
2022/05/05 00:01:56;;;;;;;;;;;7.40;99.90;;;;;;5083754;28;19928;-69
2022/05/05 00:04:22;;;;;;;;;;;8.00;99.90;;;;;;5080003;28;19955;-69
2022/05/05 00:06:50;;;;;;;;;;;7.20;99.90;;;;;;5090092;28;19947;-69
2022/05/05 00:09:16;;;;;;;;;;;7.20;99.90;;;;;;5085078;28;19928;-69
2022/05/05 00:14:30;;;;;;;;;;;7.20;99.90;;;;;;5081465;28;19934;-68
2022/05/05 00:16:58;;;;;;;;;;;7.20;99.90;;;;;;5084218;28;20399;-68
2022/05/05 00:19:27;;;;;;;;;;;7.20;99.90;;;;;;5101332;28;19981;-68
2022/05/05 00:21:53;;;;;;;;;;;7.20;99.90;;;;;;5089036;28;19934;-68
2022/05/05 00:24:19;;;;;;;;;;;7.60;99.90;;;;;;5084639;28;20015;-68
2022/05/05 00:26:45;;;;;;;;;;;7.90;99.90;;;;;;5086382;28;19928;-68
2022/05/05 00:29:11;;;;;;;;;;;7.80;99.90;;;;;;5090259;28;19928;-68
2022/05/05 00:31:36;;;;;;;;;;;7.20;99.90;;;;;;5080702;28;20016;-69
2022/05/05 00:34:02;;;;;;;;;;;7.20;99.90;;;;;;5075153;28;20011;-68
2022/05/05 00:36:27;;;;;;;;;;;7.20;99.90;;;;;;5088518;28;19997;-68
2022/05/05 00:38:53;;;;;;;;;;;7.20;99.90;;;;;;5087001;28;20393;-68
2022/05/05 00:41:18;;;;;;;;;;;7.20;99.90;;;;;;5085303;28;19932;-69
2022/05/05 00:43:44;;;;;;;;;;;7.20;99.90;;;;;;5073675;28;20320;-68
2022/05/05 00:46:10;;;;;;;;;;;7.20;99.90;;;;;;5077807;28;19975;-69
2022/05/05 00:48:35;;;;;;;;;;;7.20;99.90;;;;;;5085701;28;19928;-69
2022/05/05 00:51:01;;;;;;;;;;;7.20;99.90;;;;;;5087180;28;20019;-68
2022/05/05 00:53:26;;;;;;;;;;;7.20;99.90;;;;;;5086271;28;19934;-67
2022/05/05 00:55:55;;;;;;;;;;;7.20;99.90;;;;;;5084462;28;19928;-69
2022/05/05 00:58:22;;;;;;;;;;;7.20;99.90;;;;;;5088126;28;20309;-68
2022/05/05 01:00:47;;;;;;;;;;;7.20;99.90;;;;;;5066324;28;19972;-68
2022/05/05 01:03:15;;;;;;;;;;;7.20;99.90;;;;;;5085053;28;20002;-70
2022/05/05 01:05:40;;;;;;;;;;;7.30;99.90;;;;;;5064369;28;20458;-69
2022/05/05 01:08:06;;;;;;;;;;;7.30;99.90;;;;;;5086829;28;20005;-69
2022/05/05 01:10:32;;;;;;;;;;;7.30;99.90;;;;;;5072842;28;20019;-68
2022/05/05 01:12:57;;;;;;;;;;;7.60;99.90;;;;;;5084587;28;20389;-68
2022/05/05 01:15:23;;;;;;;;;;;7.30;99.90;;;;;;5078391;28;20025;-68
2022/05/05 01:17:48;;;;;;;;;;;7.40;99.90;;;;;;5085214;28;19963;-68
2022/05/05 01:20:18;;;;;;;;;;;7.30;99.90;;;;;;5077632;28;19939;-67
2022/05/05 01:22:47;;;;;;;;;;;7.30;99.90;;;;;;5070126;28;19974;-68
2022/05/05 01:28:12;;;;;;;;;;;7.30;99.90;;;;;;5079386;28;19935;-67
2022/05/05 01:30:43;;;;;;;;;;;7.30;99.90;;;;;;5083622;28;19928;-68
2022/05/05 01:33:16;;;;;;;;;;;7.30;99.90;;;;;;5088521;28;19953;-69
2022/05/05 01:35:43;;;;;;;;;;;7.30;99.90;;;;;;5081291;28;19932;-69
2022/05/05 01:38:10;;;;;;;;;;;7.30;99.90;;;;;;5084983;28;19935;-68
2022/05/05 01:40:36;;;;;;;;;;;7.30;99.90;;;;;;5077979;28;19987;-69
2022/05/05 01:43:08;;;;;;;;;;;7.30;99.90;;;;;;5084776;28;19928;-67
2022/05/05 01:45:34;;;;;;;;;;;7.30;99.90;;;;;;5101426;27;19929;-68
2022/05/05 01:48:00;;;;;;;;;;;7.30;99.90;;;;;;5083206;28;19928;-68
2022/05/05 01:50:25;;;;;;;;;;;7.40;99.90;;;;;;5086308;28;19934;-67
2022/05/05 01:52:52;;;;;;;;;;;7.30;99.90;;;;;;5052823;28;20325;-68
2022/05/05 01:55:18;;;;;;;;;;;7.40;99.90;;;;;;5083826;28;19928;-69
2022/05/05 01:57:44;;;;;;;;;;;7.40;99.90;;;;;;5084234;28;19935;-68
2022/05/05 02:00:09;;;;;;;;;;;7.40;99.90;;;;;;5064422;28;19929;-68
2022/05/05 02:02:36;;;;;;;;;;;7.40;99.90;;;;;;5086118;28;20306;-68
2022/05/05 02:05:02;;;;;;;;;;;7.40;99.90;;;;;;5079066;28;19929;-69
2022/05/05 02:07:29;;;;;;;;;;;7.40;99.90;;;;;;5085989;28;20313;-68
2022/05/05 02:10:01;;;;;;;;;;;7.40;99.90;;;;;;5084123;28;19928;-68
2022/05/05 02:12:28;;;;;;;;;;;7.40;99.90;;;;;;5081715;28;19951;-68
2022/05/05 02:14:54;;;;;;;;;;;7.40;99.90;;;;;;5075264;28;19928;-68
2022/05/05 02:17:19;;;;;;;;;;;7.30;99.90;;;;;;5083048;28;19935;-68
2022/05/05 02:19:45;;;;;;;;;;;7.30;99.90;;;;;;5086188;28;20427;-68
2022/05/05 02:22:11;;;;;;;;;;;7.30;99.90;;;;;;5064299;28;19928;-69
2022/05/05 02:24:36;;;;;;;;;;;7.30;99.90;;;;;;5065962;28;19958;-68
2022/05/05 02:27:02;;;;;;;;;;;7.30;99.90;;;;;;5066778;28;19928;-68
2022/05/05 02:29:30;;;;;;;;;;;7.30;99.90;;;;;;5086691;28;19981;-67
2022/05/05 02:31:55;;;;;;;;;;;7.20;99.90;;;;;;5082578;28;19935;-68
2022/05/05 02:34:21;;;;;;;;;;;7.60;99.90;;;;;;5085507;28;19928;-68
2022/05/05 02:39:34;;;;;;;;;;;7.20;99.90;;;;;;5081991;28;19963;-69
2022/05/05 02:41:59;;;;;;;;;;;7.60;99.90;;;;;;5077932;28;20404;-68
2022/05/05 02:44:26;;;;;;;;;;;8.20;99.90;;;;;;5081390;28;20290;-68
2022/05/05 02:46:51;;;;;;;;;;;7.20;99.90;;;;;;5087266;28;20562;-69
2022/05/05 02:49:17;;;;;;;;;;;7.20;99.90;;;;;;5089983;28;19925;-68
2022/05/05 02:51:43;;;;;;;;;;;7.20;99.90;;;;;;5089800;28;19931;-68
2022/05/05 02:56:53;;;;;;;;;;;7.10;99.90;;;;;;5084675;28;20242;-68
2022/05/05 02:59:19;;;;;;;;;;;7.10;99.90;;;;;;5107339;28;19925;-68
2022/05/05 03:01:44;;;;;;;;;;;7.10;99.90;;;;;;5088082;28;19947;-69
2022/05/05 03:04:10;;;;;;;;;;;7.20;99.90;;;;;;5090031;28;19959;-68
2022/05/05 03:06:35;;;;;;;;;;;7.20;99.90;;;;;;5081479;28;20011;-70
2022/05/05 03:09:01;;;;;;;;;;;7.20;99.90;;;;;;5096723;28;20401;-68
2022/05/05 03:11:27;;;;;;;;;;;7.20;99.90;;;;;;5093351;28;19932;-69
2022/05/05 03:13:52;;;;;;;;;;;7.20;99.90;;;;;;5109142;28;19925;-68
2022/05/05 03:16:18;;;;;;;;;;;7.20;99.90;;;;;;5092945;28;19924;-68
2022/05/05 03:18:43;;;;;;;;;;;8.20;99.90;;;;;;5094982;28;19924;-70
2022/05/05 03:21:09;;;;;;;;;;;7.20;99.90;;;;;;5093778;28;20019;-68
2022/05/05 03:23:34;;;;;;;;;;;7.40;99.90;;;;;;5093346;28;19924;-69
2022/05/05 03:26:00;;;;;;;;;;;7.20;99.90;;;;;;5090376;28;19935;-68
2022/05/05 03:28:26;;;;;;;;;;;7.70;99.90;;;;;;5087622;28;19931;-68
2022/05/05 03:30:51;;;;;;;;;;;7.30;99.90;;;;;;5086960;28;19924;-70
2022/05/05 03:33:17;;;;;;;;;;;7.30;99.90;;;;;;5093481;28;19924;-69
2022/05/05 03:35:42;;;;;;;;;;;7.30;99.90;;;;;;5093988;28;19977;-69
2022/05/05 03:38:08;;;;;;;;;;;7.30;99.90;;;;;;5085383;28;19966;-67
2022/05/05 03:40:33;;;;;;;;;;;7.30;99.90;;;;;;5091348;28;20343;-69
2022/05/05 03:43:00;;;;;;;;;;;8.40;99.90;;;;;;5093816;28;19990;-68
2022/05/05 03:45:25;;;;;;;;;;;7.30;99.90;;;;;;5093059;28;19936;-68
2022/05/05 03:47:51;;;;;;;;;;;7.40;99.90;;;;;;5092145;28;19924;-69
2022/05/05 03:50:16;;;;;;;;;;;7.40;99.90;;;;;;5091167;28;19943;-68
2022/05/05 03:52:42;;;;;;;;;;;7.40;99.90;;;;;;5082316;28;19927;-68
2022/05/05 03:55:08;;;;;;;;;;;7.40;99.90;;;;;;5094219;28;20007;-69
2022/05/05 03:57:33;;;;;;;;;;;7.40;99.90;;;;;;5089935;28;20320;-69
2022/05/05 04:00:03;;;;;;;;;;;7.50;99.90;;;;;;5092275;28;20453;-69
2022/05/05 04:02:29;;;;;;;;;;;7.50;99.90;;;;;;5083188;28;19931;-69
2022/05/05 04:04:55;;;;;;;;;;;7.50;99.90;;;;;;5073480;28;20305;-68
2022/05/05 04:07:24;;;;;;;;;;;7.50;99.90;;;;;;5091774;28;20007;-68
2022/05/05 04:09:49;;;;;;;;;;;7.50;99.90;;;;;;5093687;28;20015;-68
2022/05/05 04:12:15;;;;;;;;;;;7.60;99.90;;;;;;5092317;28;19924;-68
2022/05/05 04:14:40;;;;;;;;;;;7.60;99.90;;;;;;5091968;28;19928;-68
2022/05/05 04:17:06;;;;;;;;;;;7.70;99.90;;;;;;5088294;28;19924;-69
2022/05/05 04:19:32;;;;;;;;;;;7.60;99.90;;;;;;5093162;28;19978;-69
2022/05/05 04:21:57;;;;;;;;;;;7.60;99.90;;;;;;5093394;28;19924;-68
2022/05/05 04:24:23;;;;;;;;;;;7.80;99.90;;;;;;5091528;28;19931;-68
2022/05/05 04:26:49;;;;;;;;;;;7.60;99.90;;;;;;5092997;28;20023;-68
2022/05/05 04:29:14;;;;;;;;;;;7.60;99.90;;;;;;5087589;28;20369;-69
2022/05/05 04:31:41;;;;;;;;;;;7.60;99.90;;;;;;5091450;28;19946;-68
2022/05/05 04:34:08;;;;;;;;;;;7.80;99.90;;;;;;5072430;28;19956;-69
2022/05/05 04:36:35;;;;;;;;;;;7.70;99.90;;;;;;5091283;28;20278;-68
2022/05/05 04:39:02;;;;;;;;;;;7.80;99.90;;;;;;5088497;28;19924;-70
2022/05/05 04:41:27;;;;;;;;;;;7.70;99.90;;;;;;5092094;28;19924;-68
2022/05/05 04:43:53;;;;;;;;;;;7.70;99.90;;;;;;5092163;28;19924;-68
2022/05/05 04:46:18;;;;;;;;;;;9.40;99.90;;;;;;5090419;28;19924;-69
2022/05/05 04:48:44;;;;;;;;;;;7.80;99.90;;;;;;5105708;28;20294;-68
2022/05/05 04:51:09;;;;;;;;;;;7.80;99.90;;;;;;5083318;28;20401;-68
2022/05/05 04:53:35;;;;;;;;;;;7.80;99.90;;;;;;5085767;28;20294;-69
2022/05/05 04:56:01;;;;;;;;;;;7.90;99.90;;;;;;5077941;28;20326;-68
2022/05/05 04:58:26;;;;;;;;;;;7.90;99.90;;;;;;5071766;28;19931;-67
2022/05/05 05:00:53;;;;;;;;;;;8.70;99.90;;;;;;5086778;28;19932;-68
2022/05/05 05:03:35;;;;;;;;;;;7.90;99.90;;;;;;5090061;28;19924;-70
2022/05/05 05:06:04;;;;;;;;;;;8.20;99.90;;;;;;5086542;28;20398;-68
2022/05/05 05:08:30;;;;;;;;;;;8.20;99.90;;;;;;5093646;28;19924;-69
2022/05/05 05:10:56;;;;;;;;;;;8.00;99.90;;;;;;5089719;28;19928;-68
2022/05/05 05:13:21;;;;;;;;;;;8.30;99.90;;;;;;5091884;28;19996;-68
2022/05/05 05:15:47;;;;;;;;;;;8.00;99.90;;;;;;5092748;28;19955;-68
2022/05/05 05:18:12;;;;;;;;;;;8.00;99.90;;;;;;5073708;28;19928;-69
2022/05/05 05:20:38;;;;;;;;;;;8.10;99.90;;;;;;5088898;28;19993;-70
2022/05/05 05:23:03;;;;;;;;;;;8.10;99.90;;;;;;5087813;28;19964;-69
2022/05/05 05:25:29;;;;;;;;;;;8.10;99.90;;;;;;5092980;28;20019;-69
2022/05/05 05:27:54;;;;;;;;;;;8.30;99.90;;;;;;5093112;28;19977;-68
2022/05/05 05:30:20;;;;;;;;;;;8.20;99.90;;;;;;5091318;28;19927;-70
2022/05/05 05:32:46;;;;;;;;;;;8.20;99.90;;;;;;5091532;28;20309;-68
2022/05/05 05:35:11;;;;;;;;;;;8.20;99.90;;;;;;5089721;28;19924;-68
2022/05/05 05:37:38;;;;;;;;;;;8.30;99.90;;;;;;5092864;28;19938;-69
2022/05/05 05:40:04;;;;;;;;;;;8.20;99.90;;;;;;5085337;28;19924;-70
2022/05/05 05:42:29;;;;;;;;;;;8.30;99.90;;;;;;5084817;28;19969;-68
2022/05/05 05:44:55;;;;;;;;;;;8.30;99.90;;;;;;5090989;28;19925;-69
2022/05/05 05:47:20;;;;;;;;;;;8.40;99.90;;;;;;5067808;28;19930;-69
2022/05/05 05:49:46;;;;;;;;;;;8.40;99.90;;;;;;5108786;28;19924;-68
2022/05/05 05:52:11;;;;;;;;;;;8.50;99.90;;;;;;5108737;28;19924;-68
2022/05/05 05:54:37;;;;;;;;;;;8.50;99.90;;;;;;5101334;28;19976;-69
2022/05/05 05:57:02;;;;;;;;;;;8.70;99.90;;;;;;5091350;28;19928;-69
2022/05/05 05:59:28;;;;;;;;;;;8.60;99.90;;;;;;5082383;28;20301;-69
2022/05/05 06:04:39;;;;;;;;;;;8.70;99.90;;;;;;5092116;28;19979;-70
2022/05/05 06:07:05;;;;;;;;;;;8.80;99.90;;;;;;5084563;28;19932;-68
2022/05/05 06:09:30;;;;;;;;;;;8.80;99.90;;;;;;5072705;28;19924;-69
2022/05/05 06:11:56;;;;;;;;;;;8.90;99.90;;;;;;5086325;28;19924;-69
2022/05/05 06:14:21;;;;;;;;;;;9.00;99.90;;;;;;5078526;28;19924;-69
2022/05/05 06:16:47;;;;;;;;;;;9.00;99.90;;;;;;5082150;28;19936;-69
2022/05/05 06:19:12;;;;;;;;;;;9.00;99.90;;;;;;5071998;28;19925;-69
2022/05/05 06:21:39;;;;;;;;;;;9.20;99.90;;;;;;5072244;28;20007;-68
2022/05/05 06:24:04;;;;;;;;;;;9.20;99.90;;;;;;5087240;28;19931;-68
2022/05/05 06:26:30;;;;;;;;;;;9.30;99.90;;;;;;5091062;28;20289;-68
2022/05/05 06:28:56;;;;;;;;;;;9.40;99.90;;;;;;5083142;28;20037;-68
2022/05/05 06:31:22;;;;;;;;;;;9.40;99.90;;;;;;5086580;28;19925;-68
2022/05/05 06:33:49;;;;;;;;;;;9.70;99.90;;;;;;5081962;28;19928;-69
2022/05/05 06:36:15;;;;;;;;;;;9.60;99.90;;;;;;5091963;28;19924;-69
2022/05/05 06:38:41;;;;;;;;;;;9.70;99.90;;;;;;5092663;28;19928;-69
2022/05/05 06:41:08;;;;;;;;;;;10.10;99.90;;;;;;5092082;28;20015;-70
2022/05/05 06:43:36;;;;;;;;;;;9.80;99.90;;;;;;5089232;28;19931;-68
2022/05/05 06:46:03;;;;;;;;;;;9.80;99.90;;;;;;5084101;28;19985;-69
2022/05/05 06:48:29;;;;;;;;;;;9.90;99.90;;;;;;5096874;28;19924;-68
2022/05/05 06:50:55;;;;;;;;;;;10.00;99.90;;;;;;5096210;28;20271;-68
2022/05/05 06:53:20;;;;;;;;;;;10.10;99.90;;;;;;5091454;28;20015;-69
2022/05/05 06:55:47;;;;;;;;;;;10.10;99.90;;;;;;5110283;28;19931;-68
2022/05/05 06:58:13;;;;;;;;;;;10.20;99.90;;;;;;5090255;28;19924;-69
2022/05/05 07:03:26;;;;;;;;;;;10.40;99.90;;;;;;5084294;28;20467;-69
2022/05/05 07:05:52;;;;;;;;;;;10.50;99.90;;;;;;5095436;28;19924;-69
2022/05/05 07:08:18;;;;;;;;;;;10.60;99.90;;;;;;5111039;28;19928;-69
2022/05/05 07:10:52;;;;;;;;;;;10.70;99.90;;;;;;5090889;28;19976;-68
2022/05/05 07:13:22;;;;;;;;;;;10.80;99.90;;;;;;5091748;28;20023;-69
2022/05/05 07:15:47;;;;;;;;;;;10.90;99.90;;;;;;5086303;28;19924;-69
2022/05/05 07:18:13;;;;;;;;;;;11.00;99.90;;;;;;5072017;28;20441;-69
2022/05/05 07:20:38;;;;;;;;;;;11.00;99.90;;;;;;5110494;28;19924;-69
2022/05/05 07:23:05;;;;;;;;;;;11.10;99.90;;;;;;5095044;28;19923;-69
2022/05/05 07:25:30;;;;;;;;;;;11.20;99.90;;;;;;5094661;28;20014;-68
2022/05/05 07:27:56;;;;;;;;;;;11.30;99.90;;;;;;5091108;28;20015;-68
2022/05/05 07:30:23;;;;;;;;;;;11.50;99.90;;;;;;5093138;28;19932;-68
2022/05/05 07:32:49;;;;;;;;;;;11.50;99.90;;;;;;5094511;28;19931;-68
2022/05/05 07:35:14;;;;;;;;;;;11.70;99.90;;;;;;5089216;28;19924;-69
2022/05/05 07:37:40;;;;;;;;;;;11.80;99.90;;;;;;5093098;28;20304;-70
2022/05/05 07:40:06;;;;;;;;;;;11.90;99.90;;;;;;5088119;28;20275;-68
2022/05/05 07:42:32;;;;;;;;;;;12.00;99.90;;;;;;5081530;28;19924;-71
2022/05/05 07:44:57;;;;;;;;;;;12.10;99.90;;;;;;5077247;28;19925;-69
2022/05/05 07:47:23;;;;;;;;;;;12.20;99.90;;;;;;5085688;28;19931;-68
2022/05/05 07:49:48;;;;;;;;;;;12.30;99.90;;;;;;5087797;28;19924;-69
2022/05/05 07:52:14;;;;;;;;;;;12.30;99.90;;;;;;5091210;28;19977;-69
2022/05/05 07:54:43;;;;;;;;;;;12.50;99.90;;;;;;5081594;28;19978;-69
2022/05/05 07:57:11;;;;;;;;;;;12.40;99.90;;;;;;5088942;28;20396;-69
2022/05/05 07:59:37;;;;;;;;;;;12.60;99.90;;;;;;5079525;28;19925;-69
2022/05/05 08:02:04;;;;;;;;;;;12.70;99.90;;;;;;5084427;28;19954;-69
2022/05/05 08:04:30;;;;;;;;;;;12.80;99.90;;;;;;5087714;28;20026;-69
2022/05/05 08:06:56;;;;;;;;;;;13.00;99.90;;;;;;5089231;28;20018;-68
2022/05/05 08:09:21;;;;;;;;;;;13.10;99.90;;;;;;5093891;28;20351;-69
2022/05/05 08:11:47;;;;;;;;;;;13.20;99.90;;;;;;5094466;28;19969;-69
2022/05/05 08:14:12;;;;;;;;;;;13.50;99.90;;;;;;5084643;28;19978;-70
2022/05/05 08:16:38;;;;;;;;;;;13.50;99.90;;;;;;5090311;28;20015;-68
2022/05/05 08:19:03;;;;;;;;;;;13.50;99.90;;;;;;5083246;28;20374;-68
2022/05/05 08:21:29;;;;;;;;;;;14.40;99.90;;;;;;5116197;27;19924;-69
2022/05/05 08:29:23;;;;;;;;;;;13.90;99.90;;;;;;5082905;28;19986;-69
2022/05/05 08:31:48;;;;;;;;;;;14.10;99.90;;;;;;5083959;28;19936;-69
2022/05/05 08:34:14;;;;;;;;;;;14.20;99.90;;;;;;5085339;28;19943;-69
2022/05/05 08:36:39;;;;;;;;;;;14.30;99.90;;;;;;5085493;28;19939;-70
2022/05/05 08:39:05;;;;;;;;;;;14.40;99.90;;;;;;5082665;28;19932;-69
2022/05/05 08:41:31;;;;;;;;;;;14.50;99.10;;;;;;5079976;28;19943;-69
2022/05/05 08:43:57;;;;;;;;;;;14.50;99.90;;;;;;5081230;28;19924;-68
2022/05/05 08:46:23;;;;;;;;;;;14.60;99.20;;;;;;5081619;28;19930;-69
2022/05/05 08:48:50;;;;;;;;;;;14.80;99.70;;;;;;5091094;28;20287;-70
2022/05/05 08:51:18;;;;;;;;;;;14.90;99.00;;;;;;5098053;28;19928;-69
2022/05/05 08:53:48;;;;;;;;;;;15.00;98.80;;;;;;5085704;28;19931;-68
2022/05/05 08:56:14;;;;;;;;;;;15.10;97.80;;;;;;5078926;28;20343;-69
2022/05/05 08:58:39;;;;;;;;;;;15.20;96.50;;;;;;5092273;28;19928;-70
2022/05/05 09:01:05;;;;;;;;;;;15.20;96.70;;;;;;5091847;28;19924;-68
2022/05/05 09:03:31;;;;;;;;;;;15.20;97.10;;;;;;5081019;28;20045;-71
2022/05/05 09:05:56;;;;;;;;;;;15.20;97.20;;;;;;5082421;28;19924;-68
2022/05/05 09:08:25;;;;;;;;;;;15.50;97.50;;;;;;5092392;28;19927;-69
2022/05/05 09:10:51;;;;;;;;;;;15.60;96.90;;;;;;5116890;27;19928;-69
2022/05/05 09:13:23;;;;;;;;;;;15.90;98.00;;;;;;5076438;28;19932;-69
2022/05/05 09:15:49;;;;;;;;;;;16.30;96.10;;;;;;5071743;28;19931;-68
2022/05/05 09:18:15;;;;;;;;;;;16.20;96.20;;;;;;5073399;28;19925;-68
2022/05/05 09:20:42;;;;;;;;;;;16.30;96.50;;;;;;5085559;28;19931;-69
2022/05/05 09:23:08;;;;;;;;;;;16.40;95.70;;;;;;5088803;28;20325;-69
2022/05/05 09:25:44;;;;;;;;;;;16.60;95.80;;;;;;5073874;28;20370;-69
2022/05/05 09:28:16;;;;;;;;;;;16.90;95.70;;;;;;5083590;28;19931;-68
2022/05/05 09:30:49;;;;;;;;;;;17.10;94.90;;;;;;5085165;28;20452;-67
2022/05/05 09:33:36;;;;;;;;;;;17.20;94.20;;;;;;5088307;28;20435;-68
2022/05/05 09:36:02;;;;;;;;;;;17.40;94.10;;;;;;5090696;28;19924;-68
2022/05/05 09:38:46;;;;;;;;;;;17.40;93.50;;;;;;5092263;28;19924;-69
2022/05/05 09:41:12;;;;;;;;;;;17.30;93.30;;;;;;5071096;28;20366;-69
2022/05/05 09:43:37;;;;;;;;;;;17.40;93.60;;;;;;5072791;28;19925;-68
2022/05/05 09:46:27;;;;;;;;;;;17.40;93.70;;;;;;5088735;28;19970;-69
2022/05/05 09:49:15;;;;;;;;;;;17.50;93.50;;;;;;5091109;28;19924;-68
2022/05/05 09:57:44;;;;;;;;;;;18.00;93.20;;;;;;5087609;28;20015;-69
2022/05/05 10:05:40;;;;;;;;;;;18.60;92.10;;;;;;5090803;28;20015;-67
2022/05/05 10:08:07;;;;;;;;;;;18.70;92.30;;;;;;5090410;28;20297;-69
2022/05/05 10:10:32;;;;;;;;;;;18.80;91.60;;;;;;5088433;28;19925;-68
2022/05/05 10:12:58;;;;;;;;;;;18.70;92.10;;;;;;5088931;28;19946;-69
2022/05/05 10:15:24;;;;;;;;;;;18.80;92.90;;;;;;5079890;28;19924;-68
2022/05/05 10:17:50;;;;;;;;;;;18.90;92.60;;;;;;5080876;28;19947;-68
2022/05/05 10:20:16;;;;;;;;;;;19.00;91.80;;;;;;5089756;28;20344;-67
2022/05/05 10:23:02;;;;;;;;;;;19.10;91.70;;;;;;5076093;28;19932;-67
2022/05/05 10:25:28;;;;;;;;;;;19.10;90.80;;;;;;5085382;28;20468;-67
2022/05/05 10:27:57;;;;;;;;;;;19.10;91.40;;;;;;5081950;28;19924;-68
2022/05/05 10:30:36;;;;;;;;;;;19.20;90.70;;;;;;5081117;28;19932;-69
2022/05/05 10:33:08;;;;;;;;;;;19.20;89.80;;;;;;5101733;28;19959;-68
2022/05/05 10:35:38;;;;;;;;;;;19.30;88.30;;;;;;5084343;28;19959;-69
2022/05/05 10:38:24;;;;;;;;;;;19.00;89.40;;;;;;5086363;28;19950;-68
2022/05/05 10:40:50;;;;;;;;;;;19.10;90.60;;;;;;5087967;28;20479;-68
2022/05/05 10:43:28;;;;;;;;;;;19.30;91.20;;;;;;5106563;28;19935;-68
2022/05/05 10:45:54;;;;;;;;;;;19.50;89.70;;;;;;5091001;28;19935;-68
2022/05/05 10:48:30;;;;;;;;;;;19.80;88.00;;;;;;5092602;28;20309;-68
2022/05/05 10:51:05;;;;;;;;;;;20.00;88.30;;;;;;5088899;28;19980;-68
2022/05/05 10:53:41;;;;;;;;;;;20.20;86.90;;;;;;5091488;28;19928;-68
2022/05/05 10:56:25;;;;;;;;;;;20.40;88.10;;;;;;5091860;28;19950;-68
2022/05/05 10:59:04;;;;;;;;;;;20.70;85.80;;;;;;5089632;28;19932;-68
2022/05/05 11:01:42;;;;;;;;;;;20.80;84.70;;;;;;5083339;28;19928;-67
2022/05/05 11:04:26;;;;;;;;;;;20.90;84.00;;;;;;5091116;28;19943;-68
2022/05/05 11:07:10;;;;;;;;;;;21.20;86.30;;;;;;5090829;28;20404;-67
2022/05/05 11:09:36;;;;;;;;;;;21.70;87.70;;;;;;5090192;28;19935;-68
2022/05/05 11:12:18;;;;;;;;;;;22.00;80.00;;;;;;5090218;28;19928;-68
2022/05/05 11:23:17;;;;;;;;;;;21.30;82.20;;;;;;5100399;28;19985;-68
2022/05/05 11:25:43;;;;;;;;;;;21.20;83.30;;;;;;5091015;28;19971;-68
2022/05/05 11:28:09;;;;;;;;;;;21.10;80.60;;;;;;5080068;28;19928;-68
2022/05/05 11:30:35;;;;;;;;;;;21.10;79.30;;;;;;5089577;28;20026;-68
2022/05/05 11:33:01;;;;;;;;;;;21.10;81.00;;;;;;5078160;28;19928;-68
2022/05/05 11:35:26;;;;;;;;;;;20.80;80.50;;;;;;5086010;28;20007;-69
2022/05/05 11:37:52;;;;;;;;;;;20.90;81.50;;;;;;5080153;28;19928;-69
2022/05/05 11:40:17;;;;;;;;;;;21.00;80.20;;;;;;5086963;28;20040;-68
2022/05/05 11:45:33;;;;;;;;;;;20.80;79.60;;;;;;5087869;28;19928;-69
2022/05/05 11:47:58;;;;;;;;;;;20.60;80.30;;;;;;5091740;28;19928;-69
2022/05/05 11:50:24;;;;;;;;;;;20.60;81.40;;;;;;5090165;28;19928;-69
2022/05/05 11:52:49;;;;;;;;;;;20.80;80.30;;;;;;5088074;28;19951;-68
2022/05/05 11:55:17;;;;;;;;;;;21.20;82.70;;;;;;5091583;28;19928;-68
2022/05/05 11:57:45;;;;;;;;;;;21.60;80.50;;;;;;5094333;28;19935;-69
2022/05/05 12:02:55;;;;;;;;;;;22.20;76.40;;;;;;5090714;28;19970;-68
2022/05/05 12:05:22;;;;;;;;;;;22.70;79.80;;;;;;5073279;28;19982;-68
2022/05/05 12:07:48;;;;;;;;;;;23.20;76.90;;;;;;5093858;28;19951;-68
2022/05/05 12:10:14;;;;;;;;;;;23.50;76.70;;;;;;5090843;28;19928;-68
2022/05/05 12:12:44;;;;;;;;;;;23.70;75.30;;;;;;5090330;28;19928;-68
2022/05/05 12:15:11;;;;;;;;;;;24.00;73.90;;;;;;5089066;28;19998;-67
2022/05/05 12:17:39;;;;;;;;;;;24.00;73.50;;;;;;5084265;28;19932;-68
2022/05/05 12:20:07;;;;;;;;;;;23.80;69.70;;;;;;5089666;28;20837;-69
2022/05/05 12:22:33;;;;;;;;;;;23.70;69.10;;;;;;5088813;28;19935;-69
2022/05/05 12:25:04;;;;;;;;;;;23.80;68.10;;;;;;5080004;28;20392;-68
2022/05/05 12:27:30;;;;;;;;;;;23.50;68.10;;;;;;5080900;28;19957;-68
2022/05/05 12:29:56;;;;;;;;;;;23.00;70.50;;;;;;5087459;28;19928;-68
2022/05/05 12:32:22;;;;;;;;;;;22.90;69.60;;;;;;5089219;28;20069;-67
2022/05/05 12:34:47;;;;;;;;;;;22.80;70.20;;;;;;5089132;28;20449;-68
2022/05/05 12:37:16;;;;;;;;;;;22.60;71.80;;;;;;5104622;28;20021;-68
2022/05/05 12:40:01;;;;;;;;;;;22.60;69.90;;;;;;5086480;28;19932;-67
2022/05/05 12:42:48;;;;;;;;;;;22.20;70.40;;;;;;5084914;28;19928;-68
2022/05/05 12:45:17;;;;;;;;;;;21.90;71.20;;;;;;5085535;28;19981;-68
2022/05/05 12:47:44;;;;;;;;;;;21.60;73.20;;;;;;5087791;28;19962;-69
2022/05/05 12:50:29;;;;;;;;;;;21.60;72.20;;;;;;5085375;28;19928;-68
2022/05/05 13:01:07;;;;;;;;;;;22.20;70.90;;;;;;5088852;28;19924;-68
2022/05/05 13:03:32;;;;;;;;;;;22.20;72.10;;;;;;5088900;28;19931;-68
2022/05/05 13:05:59;;;;;;;;;;;22.40;73.20;;;;;;5081347;28;19928;-68
2022/05/05 13:08:25;;;;;;;;;;;22.70;72.20;;;;;;5090229;28;20447;-68
2022/05/05 13:10:50;;;;;;;;;;;22.90;70.40;;;;;;5087034;28;19932;-69
2022/05/05 13:13:16;;;;;;;;;;;23.20;70.10;;;;;;5089593;28;19924;-69
2022/05/05 13:15:42;;;;;;;;;;;23.40;68.70;;;;;;5092883;28;19928;-69
2022/05/05 13:18:08;;;;;;;;;;;23.60;67.90;;;;;;5089858;28;19924;-69
2022/05/05 13:20:33;;;;;;;;;;;23.60;68.30;;;;;;5093210;28;19931;-70
2022/05/05 13:23:02;;;;;;;;;;;23.70;67.40;;;;;;5092697;28;20278;-68
2022/05/05 13:25:27;;;;;;;;;;;23.80;66.80;;;;;;5092929;28;19924;-69
2022/05/05 13:27:56;;;;;;;;;;;24.00;65.30;;;;;;5092757;28;19931;-68
2022/05/05 13:30:21;;;;;;;;;;;24.30;66.30;;;;;;5091991;28;19986;-68
2022/05/05 13:32:47;;;;;;;;;;;23.80;63.80;;;;;;5121703;27;20340;-71
2022/05/05 13:35:13;;;;;;;;;;;23.40;65.50;;;;;;5091700;28;20014;-69
2022/05/05 13:37:39;;;;;;;;;;;23.30;63.90;;;;;;5092848;28;19924;-68
2022/05/05 13:40:08;;;;;;;;;;;23.10;65.00;;;;;;5092283;28;19930;-69
2022/05/05 13:42:34;;;;;;;;;;;23.00;65.50;;;;;;5092592;28;19935;-69
2022/05/05 13:45:01;;;;;;;;;;;23.00;64.90;;;;;;5092544;28;19924;-69
2022/05/05 13:47:27;;;;;;;;;;;22.80;66.30;;;;;;5090689;28;19931;-69
2022/05/05 13:49:53;;;;;;;;;;;22.70;65.70;;;;;;5074893;28;20457;-68
2022/05/05 13:52:18;;;;;;;;;;;22.60;67.70;;;;;;5092935;28;20020;-68
2022/05/05 13:54:45;;;;;;;;;;;22.60;67.00;;;;;;5090057;28;19924;-69
2022/05/05 13:57:10;;;;;;;;;;;22.40;68.80;;;;;;5074737;28;19935;-68
2022/05/05 13:59:37;;;;;;;;;;;22.40;68.60;;;;;;5080018;28;20008;-68
2022/05/05 14:02:03;;;;;;;;;;;22.60;65.50;;;;;;5112030;27;20018;-68
2022/05/05 14:04:31;;;;;;;;;;;22.30;69.30;;;;;;5088106;28;19924;-69
2022/05/05 14:06:57;;;;;;;;;;;22.10;68.10;;;;;;5077106;28;20309;-69
2022/05/05 14:12:11;;;;;;;;;;;22.10;67.40;;;;;;5092637;28;19924;-68
2022/05/05 14:14:37;;;;;;;;;;;22.00;70.30;;;;;;5091518;28;20346;-68
2022/05/05 14:17:03;;;;;;;;;;;21.90;69.70;;;;;;5091084;28;20028;-69
2022/05/05 14:19:28;;;;;;;;;;;22.00;69.60;;;;;;5090513;28;19947;-68
2022/05/05 14:21:55;;;;;;;;;;;22.10;68.40;;;;;;5092662;28;20373;-68
2022/05/05 14:24:20;;;;;;;;;;;22.20;68.30;;;;;;5090618;28;19947;-68
2022/05/05 14:26:47;;;;;;;;;;;22.20;68.40;;;;;;5091086;28;20014;-68
2022/05/05 14:29:13;;;;;;;;;;;22.10;67.90;;;;;;5108158;28;19931;-68
2022/05/05 14:31:38;;;;;;;;;;;22.10;67.40;;;;;;5088203;28;19924;-69
2022/05/05 14:34:04;;;;;;;;;;;22.00;68.00;;;;;;5089993;28;19930;-68
2022/05/05 14:36:32;;;;;;;;;;;21.90;68.10;;;;;;5092054;28;19920;-70
2022/05/05 14:39:03;;;;;;;;;;;21.80;69.10;;;;;;5090941;28;19935;-67
2022/05/05 14:41:28;;;;;;;;;;;21.80;69.30;;;;;;5090428;28;20293;-68
2022/05/05 14:43:54;;;;;;;;;;;21.50;70.80;;;;;;5090770;28;20386;-68
2022/05/05 14:46:20;;;;;;;;;;;21.60;71.80;;;;;;5083814;28;20011;-69
2022/05/05 14:48:46;;;;;;;;;;;21.40;71.40;;;;;;5080740;28;20023;-68
2022/05/05 14:51:12;;;;;;;;;;;21.00;72.70;;;;;;5101756;28;19924;-68
2022/05/05 14:53:38;;;;;;;;;;;20.80;72.80;;;;;;5090534;28;19970;-70
2022/05/05 14:56:04;;;;;;;;;;;20.70;73.70;;;;;;5090352;28;19924;-68
2022/05/05 14:58:31;;;;;;;;;;;20.50;74.20;;;;;;5091573;28;19924;-68
2022/05/05 15:00:57;;;;;;;;;;;20.40;74.50;;;;;;5092019;28;19924;-68
2022/05/05 15:03:22;;;;;;;;;;;20.30;73.80;;;;;;5091830;28;19947;-68
2022/05/05 15:05:48;;;;;;;;;;;20.10;75.00;;;;;;5110412;28;19924;-68
2022/05/05 15:08:17;;;;;;;;;;;20.10;75.30;;;;;;5111492;28;19924;-68
2022/05/05 15:10:43;;;;;;;;;;;19.80;77.00;;;;;;5075938;28;19924;-67
2022/05/05 15:13:11;;;;;;;;;;;19.90;78.10;;;;;;5094917;28;19927;-68
2022/05/05 15:15:37;;;;;;;;;;;19.70;79.20;;;;;;5094965;28;20439;-71
2022/05/05 15:18:05;;;;;;;;;;;19.70;78.30;;;;;;5096668;28;19924;-68
2022/05/05 15:20:34;;;;;;;;;;;19.60;78.20;;;;;;5095466;28;20015;-69
2022/05/05 15:22:59;;;;;;;;;;;19.50;79.30;;;;;;5095347;28;19931;-68